Time;durP1;ratioP1;P1;durP2;ratioP2;P2;SDS_P1;SDS_P2;PMS_P1;PMS_P2;Temp;Humidity;BMP_temperature;BMP_pressure;BME280_temperature;BME280_humidity;BME280_pressure;Samples;Min_cycle;Max_cycle;Signal;HPM_P1;HPM_P2
2021/01/16 00:03:11;;;;;;;9.18;3.58;;;;;;;-8.92;54.96;98090.34;10454169;28;20429;-49
2021/01/16 00:08:14;;;;;;;12.80;5.63;;;;;;;-8.90;55.17;98074.13;10454569;28;20049;-47
2021/01/16 00:13:17;;;;;;;18.00;6.32;;;;;;;-8.86;55.48;98060.41;10454480;28;20492;-47
2021/01/16 00:18:21;;;;;;;20.27;6.30;;;;;;;-8.79;55.45;98055.13;10454120;28;20052;-49
2021/01/16 00:23:23;;;;;;;17.02;5.60;;;;;;;-8.71;54.98;98050.56;10454235;28;20060;-47
2021/01/16 00:28:28;;;;;;;12.52;5.55;;;;;;;-8.68;55.47;98045.38;10455081;28;20551;-48
2021/01/16 00:33:32;;;;;;;15.50;6.05;;;;;;;-8.83;54.73;98031.47;10455123;28;20079;-49
2021/01/16 00:38:39;;;;;;;12.77;4.72;;;;;;;-8.86;55.42;98034.94;10453993;28;20136;-48
2021/01/16 00:43:41;;;;;;;10.10;3.55;;;;;;;-8.90;55.51;98017.25;10460270;28;20041;-49
2021/01/16 00:48:44;;;;;;;12.88;5.25;;;;;;;-8.92;55.36;98019.88;10491008;28;20055;-49
2021/01/16 00:53:45;;;;;;;;;;;;;;;-8.90;55.57;98010.44;10503264;28;20049;-48
2021/01/16 00:58:48;;;;;;;16.33;6.32;;;;;;;-8.86;55.12;97996.75;10501417;28;19935;-50
2021/01/16 01:04:12;;;;;;;17.65;5.75;;;;;;;-8.74;55.77;97987.00;10501716;28;20095;-47
2021/01/16 01:09:14;;;;;;;15.13;5.20;;;;;;;-8.62;55.19;97976.38;10535237;28;20135;-48
2021/01/16 01:14:15;;;;;;;14.70;4.75;;;;;;;-8.66;55.64;97957.84;10501941;28;20139;-48
2021/01/16 01:19:18;;;;;;;14.15;4.53;;;;;;;-8.58;55.61;97957.56;10502548;28;20126;-48
2021/01/16 01:24:20;;;;;;;17.83;5.78;;;;;;;-8.49;55.28;97956.41;10501999;28;20045;-48
2021/01/16 01:29:21;;;;;;;5.90;2.88;;;;;;;-8.39;55.86;97953.47;10501540;28;20070;-48
2021/01/16 01:34:24;;;;;;;13.48;4.53;;;;;;;-8.41;55.05;97975.63;10473148;28;20053;-48
2021/01/16 01:39:26;;;;;;;17.42;5.15;;;;;;;-8.44;55.29;97987.63;10459561;28;20359;-48
2021/01/16 01:44:28;;;;;;;15.00;5.50;;;;;;;-8.51;55.71;97976.00;10459938;28;20087;-48
2021/01/16 01:49:30;;;;;;;3.85;1.73;;;;;;;-8.45;55.77;97963.88;10459448;28;20393;-48
2021/01/16 01:54:35;;;;;;;8.57;3.08;;;;;;;-8.52;55.59;97953.97;10458477;28;20049;-49
2021/01/16 01:59:38;;;;;;;11.68;4.47;;;;;;;-8.49;55.58;97967.44;10459489;28;20060;-51
2021/01/16 02:04:46;;;;;;;19.83;5.32;;;;;;;-8.36;55.56;97952.50;10459432;28;20041;-48
2021/01/16 02:09:48;;;;;;;10.93;3.70;;;;;;;-8.26;55.59;97947.88;10460384;28;20051;-48
2021/01/16 02:15:03;;;;;;;13.98;5.57;;;;;;;-8.30;55.24;97939.53;10460171;28;20059;-48
2021/01/16 02:20:26;;;;;;;9.40;3.92;;;;;;;-8.40;55.60;97931.41;10459071;28;20048;-51
2021/01/16 02:25:46;;;;;;;14.10;5.20;;;;;;;-8.56;56.15;97950.69;10458094;28;20044;-49
2021/01/16 02:30:50;;;;;;;15.48;6.10;;;;;;;-8.51;55.91;97948.00;10458533;28;20048;-48
2021/01/16 02:36:00;;;;;;;15.07;5.03;;;;;;;-8.46;55.45;97952.03;10456988;28;20095;-47
2021/01/16 02:41:14;;;;;;;17.27;5.68;;;;;;;-8.46;55.65;97952.03;10456461;28;20049;-48
2021/01/16 02:46:28;;;;;;;16.27;5.55;;;;;;;-8.47;56.15;97955.44;10457146;28;20041;-48
2021/01/16 02:51:38;;;;;;;17.05;6.00;;;;;;;-8.51;55.74;97938.63;10457611;28;20122;-49
2021/01/16 02:56:41;;;;;;;14.77;5.28;;;;;;;-8.42;56.01;97940.84;10457207;28;20119;-47
2021/01/16 03:01:43;;;;;;;13.98;4.45;;;;;;;-8.38;55.87;97934.69;10457305;28;20064;-53
2021/01/16 03:06:50;;;;;;;8.23;3.60;;;;;;;-8.25;55.89;97936.78;10457532;28;20419;-50
2021/01/16 03:11:52;;;;;;;15.82;4.82;;;;;;;-8.13;55.58;97923.56;10456948;28;20052;-49
2021/01/16 03:17:10;;;;;;;10.23;3.55;;;;;;;-8.13;55.67;97933.75;10456123;28;20136;-48
2021/01/16 03:22:19;;;;;;;12.30;4.95;;;;;;;-8.15;55.78;97933.00;10456598;28;20064;-49
2021/01/16 03:27:22;;;;;;;13.43;4.82;;;;;;;-8.14;55.65;97924.47;10455104;28;20232;-48
2021/01/16 03:32:25;;;;;;;12.83;4.30;;;;;;;-8.21;55.40;97930.69;10455060;28;20056;-47
2021/01/16 03:37:27;;;;;;;11.13;4.53;;;;;;;-8.32;55.76;97918.34;10455501;28;20338;-47
2021/01/16 03:42:28;;;;;;;15.07;5.80;;;;;;;-8.45;55.83;97892.53;10455517;28;20404;-50
2021/01/16 03:47:31;;;;;;;17.20;6.35;;;;;;;-8.53;55.72;97902.16;10454510;28;20048;-47
2021/01/16 03:52:35;;;;;;;12.70;5.30;;;;;;;-8.58;56.14;97891.34;10439828;28;20056;-52
2021/01/16 03:57:37;;;;;;;18.30;6.20;;;;;;;-8.50;56.30;97894.41;10416506;28;20042;-47
2021/01/16 04:02:40;;;;;;;18.07;6.07;;;;;;;-8.39;55.72;97889.75;10413654;28;20061;-48
2021/01/16 04:07:41;;;;;;;13.32;4.95;;;;;;;-8.32;55.35;97882.66;10413926;28;20103;-48
2021/01/16 04:12:43;;;;;;;15.40;4.45;;;;;;;-8.40;55.52;97875.34;10412246;28;20139;-47
2021/01/16 04:17:45;;;;;;;14.20;4.35;;;;;;;-8.49;55.57;97869.78;10411989;28;20041;-48
2021/01/16 04:22:50;;;;;;;14.30;5.28;;;;;;;-8.47;55.99;97858.63;10412824;28;20049;-48
2021/01/16 04:27:52;;;;;;;13.50;4.03;;;;;;;-8.56;56.01;97856.41;10412669;28;20064;-47
2021/01/16 04:32:54;;;;;;;11.00;4.13;;;;;;;-8.51;56.05;97862.19;10447744;28;20053;-47
2021/01/16 04:37:57;;;;;;;8.15;2.28;;;;;;;-8.39;55.83;97854.06;10458041;28;20059;-48
2021/01/16 04:43:02;;;;;;;5.53;1.50;;;;;;;-8.37;55.91;97849.72;10457742;28;20087;-49
2021/01/16 04:48:07;;;;;;;12.00;4.43;;;;;;;-8.41;55.54;97848.19;10456493;28;20049;-50
2021/01/16 04:53:09;;;;;;;9.93;3.90;;;;;;;-8.45;55.77;97846.66;10452912;28;20044;-47
2021/01/16 04:58:12;;;;;;;12.18;4.20;;;;;;;-8.37;55.65;97834.44;10456863;28;20053;-47
2021/01/16 05:03:14;;;;;;;11.45;3.90;;;;;;;-8.39;55.58;97836.22;10456446;28;20067;-48
2021/01/16 05:08:19;;;;;;;10.90;3.75;;;;;;;-8.49;55.61;97832.38;10457912;28;20126;-47
2021/01/16 05:13:30;;;;;;;7.68;3.28;;;;;;;-8.59;55.45;97818.31;10456549;28;20486;-49
2021/01/16 05:18:37;;;;;;;8.60;3.58;;;;;;;-8.71;55.54;97811.16;10456649;28;20072;-49
2021/01/16 05:23:43;;;;;;;12.05;3.40;;;;;;;-8.76;55.71;97816.44;10456834;28;20086;-50
2021/01/16 05:28:45;;;;;;;6.68;3.25;;;;;;;-8.86;55.50;97812.59;10461029;28;20071;-50
2021/01/16 05:33:48;;;;;;;9.20;4.00;;;;;;;-8.93;55.11;97808.59;10464148;28;20063;-50
2021/01/16 05:38:49;;;;;;;11.18;3.90;;;;;;;-8.89;55.67;97807.59;10464776;28;20087;-49
2021/01/16 05:43:52;;;;;;;8.52;3.25;;;;;;;-8.92;55.49;97790.72;10464444;28;20563;-50
2021/01/16 05:48:56;;;;;;;9.25;3.38;;;;;;;-9.06;55.36;97792.94;10466873;28;20072;-48
2021/01/16 05:53:58;;;;;;;9.13;4.20;;;;;;;-9.10;55.51;97796.50;10463244;28;20481;-49
2021/01/16 05:59:00;;;;;;;11.30;3.60;;;;;;;-9.15;55.87;97788.19;10463177;28;20136;-47
2021/01/16 06:04:04;;;;;;;10.93;4.25;;;;;;;-9.09;55.86;97775.22;10462256;28;20068;-48
2021/01/16 06:09:06;;;;;;;14.63;3.88;;;;;;;-9.01;55.33;97775.78;10462198;28;20045;-48
2021/01/16 06:14:12;;;;;;;9.10;4.10;;;;;;;-9.15;55.38;97775.44;10489934;28;20067;-47
2021/01/16 06:19:19;;;;;;;13.27;4.30;;;;;;;-9.21;55.20;97762.94;10503458;28;20036;-48
2021/01/16 06:24:23;;;;;;;15.25;4.47;;;;;;;-9.22;55.30;97754.50;10504058;28;20055;-50
2021/01/16 06:29:27;;;;;;;10.95;4.55;;;;;;;-9.16;55.76;97763.63;10504742;28;20040;-48
2021/01/16 06:34:32;;;;;;;12.05;4.20;;;;;;;-9.01;55.68;97755.41;10503755;28;20055;-48
2021/01/16 06:39:36;;;;;;;13.57;4.63;;;;;;;-9.02;55.62;97758.81;10502069;28;20373;-49
2021/01/16 06:44:39;;;;;;;8.88;3.83;;;;;;;-8.97;55.33;97756.13;10502968;28;20048;-48
2021/01/16 06:49:45;;;;;;;10.45;3.88;;;;;;;-8.97;55.59;97762.03;10501103;28;20044;-49
2021/01/16 06:54:48;;;;;;;11.35;3.30;;;;;;;-8.93;55.90;97768.66;10502015;28;20374;-49
2021/01/16 06:59:51;;;;;;;9.68;4.07;;;;;;;-8.88;55.50;97784.59;10501904;28;20381;-50
2021/01/16 07:04:55;;;;;;;11.60;5.00;;;;;;;-8.88;55.29;97779.50;10501785;28;20055;-49
2021/01/16 07:09:58;;;;;;;13.50;4.13;;;;;;;-8.82;55.32;97775.91;10501216;28;20125;-48
2021/01/16 07:15:02;;;;;;;12.15;4.18;;;;;;;-8.83;55.24;97770.00;10501217;28;20062;-49
2021/01/16 07:20:07;;;;;;;11.65;4.25;;;;;;;-8.76;55.40;97785.88;10501829;28;20082;-52
2021/01/16 07:25:10;;;;;;;13.27;4.35;;;;;;;-8.67;55.70;97780.41;10502951;28;20056;-48
2021/01/16 07:30:14;;;;;;;13.68;4.65;;;;;;;-8.65;55.55;97777.81;10501081;28;20095;-48
2021/01/16 07:35:17;;;;;;;14.88;4.38;;;;;;;-8.65;55.92;97768.47;10501293;28;20477;-49
2021/01/16 07:40:21;;;;;;;19.52;4.47;;;;;;;-8.67;55.51;97761.78;10501411;28;20059;-49
2021/01/16 07:45:27;;;;;;;16.42;5.00;;;;;;;-8.71;55.68;97752.56;10499845;28;20052;-47
2021/01/16 07:50:31;;;;;;;11.38;4.82;;;;;;;-8.76;55.38;97757.03;10499292;28;20098;-47
2021/01/16 07:55:47;;;;;;;12.13;4.18;;;;;;;-8.74;55.23;97739.94;10499372;28;20040;-48
2021/01/16 08:00:53;;;;;;;15.13;4.65;;;;;;;-8.73;55.48;97751.81;10499773;28;20052;-49
2021/01/16 08:06:10;;;;;;;17.55;6.13;;;;;;;-8.74;55.03;97729.75;10499584;28;20425;-47
2021/01/16 08:11:16;;;;;;;11.15;4.72;;;;;;;-8.82;55.30;97746.19;10500125;28;20135;-47
2021/01/16 08:16:18;;;;;;;10.68;4.15;;;;;;;-8.75;55.41;97735.75;10499393;28;20048;-47
2021/01/16 08:21:22;;;;;;;16.30;5.10;;;;;;;-8.71;55.35;97725.41;10499305;28;20059;-48
2021/01/16 08:26:24;;;;;;;11.88;4.82;;;;;;;-8.59;55.51;97719.81;10499392;28;20051;-48
2021/01/16 08:31:27;;;;;;;12.48;4.18;;;;;;;-8.46;55.22;97717.59;10500423;28;20052;-49
2021/01/16 08:36:30;;;;;;;13.38;3.90;;;;;;;-8.48;55.73;97719.38;10499011;28;20067;-48
2021/01/16 08:41:31;;;;;;;10.68;3.65;;;;;;;-8.41;55.72;97709.75;10498783;28;20060;-48
2021/01/16 08:46:34;;;;;;;12.52;4.35;;;;;;;-8.34;55.48;97704.34;10498505;28;20044;-49
2021/01/16 08:51:39;;;;;;;15.38;5.03;;;;;;;-8.30;55.42;97704.22;10498388;28;20052;-49
2021/01/16 08:56:42;;;;;;;10.45;4.13;;;;;;;-8.24;55.57;97709.06;10530946;28;20079;-48
2021/01/16 09:01:45;;;;;;;9.32;3.78;;;;;;;-8.23;55.62;97698.78;10500007;28;20500;-50
2021/01/16 09:06:48;;;;;;;12.15;4.75;;;;;;;-8.13;55.92;97717.06;10507510;28;20189;-47
2021/01/16 09:12:05;;;;;;;13.20;3.95;;;;;;;-7.99;55.53;97716.50;10505831;28;20492;-49
2021/01/16 09:17:20;;;;;;;13.30;5.05;;;;;;;-8.09;55.69;97713.50;10506291;28;20048;-48
2021/01/16 09:22:24;;;;;;;11.38;3.95;;;;;;;-8.05;55.62;97722.69;10506182;28;20418;-52
2021/01/16 09:27:28;;;;;;;19.65;5.38;;;;;;;-7.91;55.51;97728.03;10508806;28;20040;-49
2021/01/16 09:32:34;;;;;;;9.02;3.47;;;;;;;-7.90;55.38;97726.31;10505386;28;20056;-56
2021/01/16 09:37:37;;;;;;;11.65;4.47;;;;;;;-7.93;55.51;97729.81;10505531;28;20040;-47
2021/01/16 09:42:47;;;;;;;11.57;4.15;;;;;;;-7.90;55.68;97726.31;10504916;28;20071;-49
2021/01/16 09:47:50;;;;;;;10.88;4.43;;;;;;;-8.04;55.25;97719.22;10505323;28;20052;-48
2021/01/16 09:52:55;;;;;;;10.90;3.50;;;;;;;-8.10;55.47;97719.50;10504830;28;20052;-49
2021/01/16 09:57:57;;;;;;;14.95;4.32;;;;;;;-8.16;56.05;97720.59;10504765;28;20079;-48
2021/01/16 10:03:01;;;;;;;11.00;3.10;;;;;;;-8.20;55.52;97718.22;10504622;28;20524;-48
2021/01/16 10:08:05;;;;;;;6.30;2.55;;;;;;;-8.25;55.71;97715.03;10536983;28;20052;-49
2021/01/16 10:13:10;;;;;;;9.73;3.88;;;;;;;-8.26;55.77;97714.19;10503041;28;20049;-50
2021/01/16 10:18:17;;;;;;;16.00;4.07;;;;;;;-8.09;55.93;97708.41;10503503;28;20075;-49
2021/01/16 10:23:27;;;;;;;12.55;4.43;;;;;;;-8.06;55.71;97687.06;10503388;28;20401;-48
2021/01/16 10:28:30;;;;;;;13.02;4.53;;;;;;;-8.06;55.80;97690.44;10503428;28;20070;-49
2021/01/16 10:33:40;;;;;;;14.27;5.18;;;;;;;-7.92;55.87;97683.00;10502983;28;20530;-50
2021/01/16 10:38:48;;;;;;;13.20;4.10;;;;;;;-7.81;56.37;97679.19;10502771;28;20040;-50
2021/01/16 10:43:59;;;;;;;12.75;3.88;;;;;;;-7.72;56.11;97663.47;10502588;28;20048;-47
2021/01/16 10:49:13;;;;;;;18.27;5.50;;;;;;;-7.76;55.74;97674.69;10502496;28;20037;-54
2021/01/16 10:54:16;;;;;;;14.73;4.73;;;;;;;-7.60;56.29;97670.59;10506165;28;20126;-49
2021/01/16 10:59:18;;;;;;;12.23;3.70;;;;;;;-7.42;56.11;97667.22;10502209;28;20302;-48
2021/01/16 11:04:23;;;;;;;10.73;4.22;;;;;;;-7.58;55.25;97673.06;10500807;28;20143;-49
2021/01/16 11:09:47;;;;;;;10.90;4.35;;;;;;;-7.77;55.89;97656.00;10500622;28;20052;-48
2021/01/16 11:14:48;;;;;;;14.37;4.23;;;;;;;-7.84;55.77;97646.97;10498605;28;20147;-49
2021/01/16 11:19:54;;;;;;;16.52;5.05;;;;;;;-7.89;56.07;97651.44;10501285;28;20044;-48
2021/01/16 11:25:39;;;;;;;12.77;4.45;;;;;;;-7.94;55.82;97643.19;10501163;28;20059;-51
2021/01/16 11:30:43;;;;;;;13.88;5.00;;;;;;;-7.95;56.24;97652.53;10503338;28;20060;-48
2021/01/16 11:35:45;;;;;;;12.55;4.63;;;;;;;-7.70;55.97;97659.94;10500479;28;20049;-48
2021/01/16 11:40:48;;;;;;;8.15;3.35;;;;;;;-7.53;56.10;97654.09;10500945;28;20048;-48
2021/01/16 11:46:00;;;;;;;9.83;3.47;;;;;;;-7.56;55.66;97655.97;10500364;28;20044;-49
2021/01/16 11:51:13;;;;;;;16.63;5.07;;;;;;;-7.63;55.83;97665.63;10500603;28;20290;-49
2021/01/16 11:56:17;;;;;;;7.60;3.30;;;;;;;-7.52;55.52;97654.94;10501245;28;20052;-49
2021/01/16 12:01:19;;;;;;;16.08;5.35;;;;;;;-7.54;55.24;97656.72;10500097;28;20056;-49
2021/01/16 12:06:22;;;;;;;17.63;5.22;;;;;;;-7.44;55.25;97669.00;10500024;28;20049;-48
2021/01/16 12:11:25;;;;;;;13.27;5.40;;;;;;;-7.36;55.01;97665.25;10501163;28;20048;-48
2021/01/16 12:16:34;;;;;;;9.15;2.58;;;;;;;-7.43;55.00;97677.47;10499733;28;20162;-47
2021/01/16 12:21:38;;;;;;;10.73;4.20;;;;;;;-7.53;54.97;97673.69;10499808;28;20044;-49
2021/01/16 12:26:44;;;;;;;10.88;5.10;;;;;;;-7.67;54.90;97676.84;10498952;28;20044;-49
2021/01/16 12:31:46;;;;;;;15.43;5.53;;;;;;;-7.73;55.25;97669.47;10499092;28;20083;-47
2021/01/16 12:36:48;;;;;;;17.60;6.60;;;;;;;-7.88;54.85;97668.44;10500921;28;20380;-48
2021/01/16 12:41:57;;;;;;;6.10;2.38;;;;;;;-7.95;55.27;97662.75;10507832;28;20060;-47
2021/01/16 12:47:00;;;;;;;8.65;2.47;;;;;;;-8.02;55.19;97658.81;10507337;28;20417;-46
2021/01/16 12:52:01;;;;;;;;;;;;;;;-8.19;54.39;97663.78;10507402;28;20056;-49
2021/01/16 12:57:04;;;;;;;11.05;4.10;;;;;;;-8.38;54.85;97666.31;10507068;28;20436;-49
2021/01/16 13:02:06;;;;;;;17.85;4.43;;;;;;;-8.40;54.56;97666.41;10507504;28;20061;-48
2021/01/16 13:07:11;;;;;;;12.90;4.50;;;;;;;-8.45;54.90;97681.03;10506540;28;20045;-49
2021/01/16 13:12:14;;;;;;;11.88;5.30;;;;;;;-8.50;54.72;97690.56;10506706;28;20049;-48
2021/01/16 13:17:21;;;;;;;12.40;4.30;;;;;;;-8.49;54.45;97692.25;10506297;28;20048;-47
2021/01/16 13:22:25;;;;;;;15.10;4.22;;;;;;;-8.53;54.42;97703.44;10506427;28;20489;-51
2021/01/16 13:27:29;;;;;;;8.25;3.33;;;;;;;-8.64;54.80;97708.16;10506607;28;20045;-51
2021/01/16 13:32:31;;;;;;;12.02;4.13;;;;;;;-8.74;54.80;97711.94;10506647;28;20058;-48
2021/01/16 13:37:34;;;;;;;10.50;3.07;;;;;;;-8.70;54.56;97716.88;10505768;28;20059;-47
2021/01/16 13:42:38;;;;;;;12.50;4.65;;;;;;;-8.73;55.05;97723.81;10505018;28;20048;-48
2021/01/16 13:47:40;;;;;;;11.43;4.07;;;;;;;-8.82;54.29;97714.78;10503525;28;20048;-51
2021/01/16 13:52:46;;;;;;;11.55;4.18;;;;;;;-8.84;54.52;97722.47;10504980;28;20101;-47
2021/01/16 13:58:02;;;;;;;15.18;4.35;;;;;;;-8.85;54.63;97715.75;10505464;28;20101;-48
2021/01/16 14:03:05;;;;;;;9.40;3.42;;;;;;;-8.83;54.62;97713.16;10504106;28;20482;-47
2021/01/16 14:08:11;;;;;;;10.10;3.93;;;;;;;-8.85;54.34;97720.00;10505080;28;20186;-48
2021/01/16 14:13:15;;;;;;;13.70;3.97;;;;;;;-8.86;54.85;97731.91;10503782;28;20053;-48
2021/01/16 14:18:25;;;;;;;11.50;3.38;;;;;;;-8.86;54.21;97720.91;10503662;28;20050;-51
2021/01/16 14:23:29;;;;;;;15.80;4.78;;;;;;;-8.81;54.49;97724.09;10504924;28;20044;-51
2021/01/16 14:28:32;;;;;;;12.15;4.18;;;;;;;-8.85;54.25;97731.03;10504751;28;20417;-49
2021/01/16 14:33:34;;;;;;;13.02;4.47;;;;;;;-8.95;54.36;97737.38;10502734;28;20389;-48
2021/01/16 14:38:36;;;;;;;18.35;5.38;;;;;;;-9.00;54.41;97744.34;10502327;28;20052;-50
2021/01/16 14:43:39;;;;;;;12.27;5.28;;;;;;;-8.97;54.62;97726.41;10502668;28;20052;-48
2021/01/16 14:48:41;;;;;;;;;;;;;;;-9.08;54.38;97736.16;10503067;28;20435;-48
2021/01/16 14:53:44;;;;;;;12.82;5.07;;;;;;;-9.11;54.03;97741.34;10502811;28;20327;-49
2021/01/16 14:58:57;;;;;;;13.95;4.97;;;;;;;-9.08;54.49;97749.72;10501515;28;20041;-47
2021/01/16 15:03:58;;;;;;;9.77;3.58;;;;;;;-8.97;54.56;97741.66;10501476;28;20524;-47
2021/01/16 15:09:01;;;;;;;14.02;4.38;;;;;;;-8.92;54.32;97744.88;10501620;28;20051;-48
2021/01/16 15:14:04;;;;;;;13.80;5.05;;;;;;;-8.98;54.29;97736.66;10501992;28;20127;-47
2021/01/16 15:19:07;;;;;;;;;;;;;;;-9.06;54.01;97736.94;10502092;28;20040;-49
2021/01/16 15:24:09;;;;;;;14.45;5.35;;;;;;;-9.11;54.19;97729.47;10501801;28;19943;-48
2021/01/16 15:29:12;;;;;;;9.55;4.47;;;;;;;-9.13;54.20;97738.06;10501472;28;20149;-47
2021/01/16 15:34:18;;;;;;;11.77;5.28;;;;;;;-9.01;53.89;97745.22;10501191;28;20514;-50
2021/01/16 15:39:20;;;;;;;16.02;4.70;;;;;;;-8.89;53.92;97749.84;10500068;28;20044;-47
2021/01/16 15:44:29;;;;;;;15.80;5.63;;;;;;;-8.84;53.47;97739.47;10500047;28;20052;-48
2021/01/16 15:49:31;;;;;;;15.20;5.70;;;;;;;-8.87;53.49;97732.78;10500142;28;20046;-47
2021/01/16 15:54:33;;;;;;;16.92;5.18;;;;;;;-8.87;53.87;97742.16;10500635;28;20057;-47
2021/01/16 15:59:35;;;;;;;16.60;5.40;;;;;;;-8.89;53.34;97759.22;10499515;28;20145;-47
2021/01/16 16:04:38;;;;;;;10.23;4.32;;;;;;;-8.93;53.38;97748.28;10499131;28;20452;-46
2021/01/16 16:09:39;;;;;;;14.57;5.70;;;;;;;-9.03;53.43;97757.19;10500854;28;20481;-47
2021/01/16 16:14:42;;;;;;;17.27;5.07;;;;;;;-9.05;53.85;97762.34;10498848;28;20044;-47
2021/01/16 16:19:44;;;;;;;17.48;4.32;;;;;;;-9.01;53.53;97775.78;10498515;28;20056;-49
2021/01/16 16:24:45;;;;;;;19.63;5.80;;;;;;;-8.99;53.90;97778.25;10500043;28;20045;-48
2021/01/16 16:29:48;;;;;;;19.00;5.78;;;;;;;-8.89;53.45;97775.31;10499662;28;20045;-48
2021/01/16 16:34:49;;;;;;;12.40;4.82;;;;;;;-8.87;53.50;97773.53;10498120;28;20051;-51
2021/01/16 16:39:51;;;;;;;18.60;5.38;;;;;;;-8.99;53.96;97779.09;10495653;28;20374;-47
2021/01/16 16:44:54;;;;;;;10.67;4.17;;;;;;;-9.11;53.85;97775.31;10457239;28;20374;-50
2021/01/16 16:49:57;;;;;;;16.23;5.28;;;;;;;-9.22;53.94;97781.66;10457390;28;20170;-47
2021/01/16 16:55:00;;;;;;;18.85;6.30;;;;;;;-9.28;54.17;97788.63;10457758;28;20055;-49
2021/01/16 17:00:05;;;;;;;21.25;6.10;;;;;;;-9.19;54.03;97787.47;10457600;28;20363;-49
2021/01/16 17:05:08;;;;;;;10.63;4.00;;;;;;;-9.21;54.25;97798.59;10457361;28;20438;-49
2021/01/16 17:10:11;;;;;;;;;;;;;;;-9.07;53.66;97798.91;10457855;28;20084;-49
2021/01/16 17:15:15;;;;;;;18.40;5.57;;;;;;;-8.93;52.95;97796.69;10458580;28;19928;-48
2021/01/16 17:20:17;;;;;;;21.03;5.90;;;;;;;-8.88;53.22;97811.78;10457333;28;20048;-47
2021/01/16 17:25:19;;;;;;;15.27;4.50;;;;;;;-8.88;53.29;97794.78;10462457;28;20053;-49
2021/01/16 17:30:23;;;;;;;15.40;4.78;;;;;;;-8.91;52.77;97812.72;10464156;28;20045;-49
2021/01/16 17:35:26;;;;;;;12.20;4.68;;;;;;;-8.89;52.84;97800.78;10464743;28;20049;-47
2021/01/16 17:40:28;;;;;;;;;;;;;;;-8.87;53.33;97819.38;10464226;28;20041;-48
2021/01/16 17:45:31;;;;;;;12.32;4.28;;;;;;;-8.92;53.16;97821.28;10463549;28;19924;-47
2021/01/16 17:50:32;;;;;;;;;;;;;;;-8.96;53.40;97812.06;10464213;28;20525;-47
2021/01/16 17:55:34;;;;;;;17.00;6.43;;;;;;;-9.01;52.97;97826.69;10495942;28;20019;-48
2021/01/16 18:00:37;;;;;;;17.75;5.53;;;;;;;-8.98;53.41;97830.84;10503930;28;20061;-48
2021/01/16 18:05:38;;;;;;;10.63;3.97;;;;;;;-8.94;53.29;97815.41;10504326;28;20048;-48
2021/01/16 18:10:40;;;;;;;12.55;4.28;;;;;;;-9.04;53.45;97821.72;10505529;28;20393;-51
2021/01/16 18:15:43;;;;;;;9.02;2.75;;;;;;;-9.02;53.29;97830.09;10504086;28;20489;-49
2021/01/16 18:20:44;;;;;;;10.35;3.65;;;;;;;-9.00;52.88;97832.63;10504334;28;20049;-49
2021/01/16 18:25:48;;;;;;;8.73;3.53;;;;;;;-8.98;53.05;97835.94;10503490;28;20052;-48
2021/01/16 18:30:50;;;;;;;;;;;;;;;-8.92;53.52;97836.53;10503713;28;20040;-48
2021/01/16 18:35:58;;;;;;;8.80;2.13;;;;;;;-8.98;52.74;97849.50;10502481;28;19924;-48
2021/01/16 18:41:00;;;;;;;12.13;4.05;;;;;;;-8.98;52.78;97841.88;10502994;28;20389;-48
2021/01/16 18:46:04;;;;;;;18.40;4.10;;;;;;;-8.97;52.92;97840.97;10502913;28;20053;-48
2021/01/16 18:51:05;;;;;;;8.48;3.20;;;;;;;-9.00;52.96;97835.16;10502315;28;20052;-47
2021/01/16 18:56:07;;;;;;;13.68;4.30;;;;;;;-9.01;53.47;97836.06;10501990;28;20405;-47
2021/01/16 19:01:10;;;;;;;12.15;4.07;;;;;;;-9.04;52.83;97831.91;10502469;28;20056;-49
2021/01/16 19:06:12;;;;;;;16.08;4.07;;;;;;;-8.97;52.83;97835.88;10502618;28;20144;-48
2021/01/16 19:11:13;;;;;;;8.77;3.20;;;;;;;-8.97;52.90;97846.06;10501638;28;20078;-49
2021/01/16 19:16:16;;;;;;;9.07;2.97;;;;;;;-9.01;53.25;97847.06;10501762;28;20059;-47
2021/01/16 19:21:18;;;;;;;10.57;3.42;;;;;;;-8.96;53.44;97852.81;10500805;28;20045;-47
2021/01/16 19:26:21;;;;;;;9.85;2.92;;;;;;;-8.96;52.80;97851.97;10500740;28;20059;-48
2021/01/16 19:31:30;;;;;;;;;;;;;;;-8.93;53.16;97865.41;10501372;28;20056;-48
2021/01/16 19:36:35;;;;;;;8.45;2.45;;;;;;;-8.96;53.20;97869.78;10500573;28;20426;-47
2021/01/16 19:41:38;;;;;;;11.40;3.28;;;;;;;-9.02;53.19;97865.75;10500365;28;20126;-48
2021/01/16 19:46:43;;;;;;;9.60;2.75;;;;;;;-9.01;53.20;97872.53;10500713;28;20064;-48
2021/01/16 19:51:47;;;;;;;10.43;2.90;;;;;;;-8.98;53.10;97880.06;10500051;28;20385;-49
2021/01/16 19:56:50;;;;;;;9.75;3.03;;;;;;;-8.93;52.43;97885.78;10500301;28;20044;-53
2021/01/16 20:01:53;;;;;;;7.35;1.98;;;;;;;-8.94;52.68;97891.78;10499431;28;20087;-48
2021/01/16 20:06:54;;;;;;;5.05;2.22;;;;;;;-8.95;53.41;97890.13;10500433;28;20500;-48
2021/01/16 20:11:56;;;;;;;5.80;1.75;;;;;;;-9.00;53.44;97907.28;10499866;28;20040;-48
2021/01/16 20:16:59;;;;;;;7.88;2.15;;;;;;;-9.07;53.21;97903.28;10498635;28;20158;-47
2021/01/16 20:22:01;;;;;;;14.07;2.97;;;;;;;-9.08;53.72;97919.44;10499694;28;20105;-47
2021/01/16 20:27:03;;;;;;;2.53;1.35;;;;;;;-9.07;53.41;97916.00;10499384;28;20044;-47
2021/01/16 20:32:07;;;;;;;8.57;2.90;;;;;;;-9.04;53.39;97919.28;10499204;28;20485;-47
2021/01/16 20:37:09;;;;;;;12.90;3.57;;;;;;;-8.97;52.68;97919.91;10498911;28;20214;-46
2021/01/16 20:42:11;;;;;;;9.37;2.93;;;;;;;-8.96;52.61;97931.72;10499669;28;20048;-47
2021/01/16 20:47:14;;;;;;;7.32;2.60;;;;;;;-8.91;52.59;97932.41;10499050;28;20049;-48
2021/01/16 20:52:15;;;;;;;8.18;2.70;;;;;;;-8.91;52.97;97939.22;10499158;28;20384;-48
2021/01/16 20:57:17;;;;;;;7.63;2.37;;;;;;;-8.88;52.57;97945.03;10499177;28;20041;-48
2021/01/16 21:02:19;;;;;;;6.95;2.00;;;;;;;-8.84;52.58;97955.94;10506626;28;20060;-47
2021/01/16 21:07:21;;;;;;;8.43;1.73;;;;;;;-8.78;52.61;97949.81;10506629;28;20508;-49
2021/01/16 21:12:23;;;;;;;6.78;2.00;;;;;;;-8.82;52.51;97965.19;10506226;28;20117;-48
2021/01/16 21:17:26;;;;;;;5.83;2.37;;;;;;;-8.87;52.35;97954.31;10506310;28;20478;-47
2021/01/16 21:22:31;;;;;;;8.63;3.13;;;;;;;-8.83;52.34;97966.09;10506625;28;20048;-49
2021/01/16 21:27:36;;;;;;;10.50;3.15;;;;;;;-8.79;52.86;97968.53;10505992;28;20110;-47
2021/01/16 21:32:39;;;;;;;14.20;4.43;;;;;;;-8.79;52.11;97968.53;10505971;28;20045;-50
2021/01/16 21:37:41;;;;;;;4.65;1.85;;;;;;;-8.74;52.25;97967.47;10505813;28;20059;-47
2021/01/16 21:42:42;;;;;;;8.43;2.78;;;;;;;-8.75;52.14;97972.63;10504966;28;20168;-49
2021/01/16 21:47:45;;;;;;;11.90;3.47;;;;;;;-8.73;52.23;97965.75;10505498;28;20051;-47
2021/01/16 21:52:48;;;;;;;8.65;2.80;;;;;;;-8.66;52.10;97964.66;10505761;28;20063;-48
2021/01/16 21:57:51;;;;;;;;;;;;;;;-8.61;52.24;97967.88;10505170;28;20044;-51
2021/01/16 22:02:57;;;;;;;6.22;1.85;;;;;;;-8.66;52.07;97970.56;10503438;28;19974;-48
2021/01/16 22:07:59;;;;;;;9.32;2.92;;;;;;;-8.68;52.07;97974.06;10504245;28;20082;-48
2021/01/16 22:13:00;;;;;;;10.48;3.17;;;;;;;-8.69;52.03;97964.75;10503374;28;20049;-47
2021/01/16 22:18:03;;;;;;;10.38;2.70;;;;;;;-8.73;51.82;97970.84;10504198;28;20041;-47
2021/01/16 22:23:05;;;;;;;5.25;2.00;;;;;;;-8.68;51.75;97963.88;10503369;28;20384;-47
2021/01/16 22:28:06;;;;;;;8.48;4.07;;;;;;;-8.73;52.52;97969.13;10503223;28;20045;-47
2021/01/16 22:33:09;;;;;;;5.60;2.00;;;;;;;-8.78;52.29;97965.91;10503313;28;20144;-48
2021/01/16 22:38:11;;;;;;;13.20;3.25;;;;;;;-8.76;52.21;97983.69;10503905;28;20040;-49
2021/01/16 22:43:12;;;;;;;6.28;2.30;;;;;;;-8.73;51.66;97983.59;10503207;28;20052;-52
2021/01/16 22:48:15;;;;;;;8.25;2.88;;;;;;;-8.82;51.48;97985.56;10502868;28;20048;-46
2021/01/16 22:53:17;;;;;;;6.60;2.17;;;;;;;-8.89;52.17;97991.75;10502299;28;20054;-47
2021/01/16 22:58:19;;;;;;;12.20;2.57;;;;;;;-8.92;51.37;97994.41;10503479;28;20103;-49
2021/01/16 23:03:23;;;;;;;6.67;2.70;;;;;;;-8.99;51.26;97992.94;10502266;28;20105;-47
2021/01/16 23:08:27;;;;;;;8.33;2.37;;;;;;;-8.98;51.30;97989.53;10502229;28;20139;-50
2021/01/16 23:13:29;;;;;;;11.03;2.83;;;;;;;-9.00;51.72;98006.56;10501575;28;20062;-47
2021/01/16 23:18:32;;;;;;;4.50;1.33;;;;;;;-8.99;51.71;98012.47;10501567;28;20044;-49
2021/01/16 23:23:34;;;;;;;10.93;2.30;;;;;;;-9.01;51.32;98024.44;10501172;28;20052;-47
2021/01/16 23:28:37;;;;;;;8.37;2.40;;;;;;;-9.10;51.19;98025.56;10501050;28;20055;-48